createdAt,value
2023-03-06T00:03:18.212Z,66.69
2023-03-06T00:08:21.903Z,67.21
2023-03-06T00:13:26.860Z,67.72
2023-03-06T00:18:30.107Z,68.07
2023-03-06T00:23:33.165Z,68.14
2023-03-06T00:28:36.712Z,68.18
2023-03-06T00:33:39.786Z,67.91
2023-03-06T00:38:42.906Z,67.92
2023-03-06T00:43:46.022Z,68.36
2023-03-06T00:48:48.997Z,68.30
2023-03-06T00:53:52.105Z,68.19
2023-03-06T00:58:55.153Z,67.98
2023-03-06T01:03:58.312Z,67.49
2023-03-06T01:09:01.639Z,67.20
2023-03-06T01:14:05.225Z,67.66
2023-03-06T01:19:08.558Z,67.63
2023-03-06T01:24:11.653Z,67.79
2023-03-06T01:29:14.765Z,67.96
2023-03-06T01:34:18.646Z,68.21
2023-03-06T01:39:21.690Z,68.47
2023-03-06T01:44:24.694Z,68.58
2023-03-06T01:49:37.027Z,68.65
2023-03-06T01:54:52.513Z,68.49
2023-03-06T02:00:18.923Z,68.67
2023-03-06T02:05:22.488Z,68.93
2023-03-06T02:10:25.583Z,69.16
2023-03-06T02:15:30.314Z,69.07
2023-03-06T02:20:57.699Z,69.32
2023-03-06T02:26:02.472Z,69.16
2023-03-06T02:31:06.618Z,68.74
2023-03-06T02:36:15.736Z,68.67
2023-03-06T02:41:18.898Z,68.57
2023-03-06T02:46:21.870Z,68.29
2023-03-06T02:51:25.206Z,68.34
2023-03-06T02:56:28.270Z,68.32
2023-03-06T03:01:31.623Z,68.15
2023-03-06T03:06:34.627Z,67.96
2023-03-06T03:11:37.855Z,68.07
2023-03-06T03:16:40.803Z,67.64
2023-03-06T03:21:43.790Z,67.38
2023-03-06T03:26:46.734Z,67.89
2023-03-06T03:31:49.702Z,68.24
2023-03-06T03:36:52.693Z,68.29
2023-03-06T03:41:55.760Z,68.46
2023-03-06T03:46:58.904Z,68.56
2023-03-06T03:52:01.865Z,68.95
2023-03-06T03:57:05.076Z,69.21
2023-03-06T04:02:08.085Z,69.23
2023-03-06T04:07:11.088Z,69.12
2023-03-06T04:12:14.085Z,69.07
2023-03-06T04:17:17.011Z,68.97
2023-03-06T04:22:20.091Z,68.80
2023-03-06T04:27:23.072Z,68.45
2023-03-06T04:32:26.154Z,68.27
2023-03-06T04:37:29.314Z,68.00
2023-03-06T04:42:32.250Z,67.52
2023-03-06T04:47:35.210Z,67.56
2023-03-06T04:52:38.344Z,67.57
2023-03-06T04:57:44.225Z,68.16
2023-03-06T05:02:47.592Z,68.48
2023-03-06T05:07:50.763Z,68.60
2023-03-06T05:12:53.742Z,68.73
2023-03-06T05:17:56.697Z,69.07
2023-03-06T05:22:59.671Z,69.16
2023-03-06T05:28:02.626Z,68.63
2023-03-06T05:33:05.546Z,68.47
2023-03-06T05:38:09.519Z,68.41
2023-03-06T05:43:13.012Z,68.23
2023-03-06T05:48:16.298Z,68.25
2023-03-06T05:53:19.270Z,68.09
2023-03-06T05:58:22.208Z,68.30
2023-03-06T06:03:26.584Z,68.04
2023-03-06T06:08:29.544Z,68.50
2023-03-06T06:13:32.923Z,68.39
2023-03-06T06:18:35.797Z,69.22
2023-03-06T06:23:38.858Z,69.63
2023-03-06T06:28:41.805Z,69.16
2023-03-06T06:33:45.557Z,69.41
2023-03-06T06:38:49.836Z,68.43
2023-03-06T06:43:53.397Z,68.15
2023-03-06T06:48:56.344Z,67.54
2023-03-06T06:54:00.778Z,67.26
2023-03-06T06:59:16.003Z,67.60
2023-03-06T07:04:20.294Z,67.25
2023-03-06T07:09:23.385Z,67.07
2023-03-06T07:14:26.411Z,66.33
2023-03-06T07:19:29.407Z,66.34
2023-03-06T07:24:32.447Z,66.69
2023-03-06T07:29:36.014Z,66.48
2023-03-06T07:34:39.004Z,66.27
2023-03-06T07:39:42.069Z,65.70
2023-03-06T07:44:44.998Z,65.56
2023-03-06T07:49:47.998Z,65.11
2023-03-06T07:54:50.955Z,65.20
2023-03-06T07:59:54.022Z,65.06
2023-03-06T08:04:57.376Z,64.59
2023-03-06T08:10:00.322Z,65.15
2023-03-06T08:15:03.601Z,65.29
2023-03-06T08:20:10.457Z,65.16
2023-03-06T08:25:13.584Z,65.15
2023-03-06T08:30:17.075Z,65.11
2023-03-06T08:35:20.173Z,65.03
2023-03-06T08:40:23.456Z,64.28
2023-03-06T08:45:26.446Z,64.05
2023-03-06T08:50:29.462Z,64.25
2023-03-06T08:55:37.200Z,63.99
2023-03-06T09:00:40.419Z,64.57
2023-03-06T09:05:43.618Z,63.61
2023-03-06T09:10:48.805Z,63.82
2023-03-06T09:15:51.775Z,64.75
2023-03-06T09:20:54.872Z,64.34
2023-03-06T09:26:01.729Z,65.14
2023-03-06T09:31:13.976Z,65.61
2023-03-06T09:36:21.682Z,66.09
2023-03-06T09:41:38.452Z,66.68
2023-03-06T09:47:07.124Z,67.20
2023-03-06T09:52:52.018Z,68.06
2023-03-06T09:58:17.943Z,68.70
2023-03-06T10:03:42.061Z,69.20
2023-03-06T10:09:12.104Z,69.42
2023-03-06T10:20:28.344Z,69.58
2023-03-06T10:25:54.312Z,69.66
2023-03-06T10:31:10.491Z,70.12
2023-03-06T10:36:19.681Z,70.43
2023-03-06T10:41:32.104Z,70.24
2023-03-06T10:46:39.322Z,70.16
2023-03-06T10:51:55.961Z,70.24
2023-03-06T10:57:17.224Z,70.10
2023-03-06T11:02:38.636Z,70.30
2023-03-06T11:07:59.380Z,70.34
2023-03-06T11:13:22.107Z,70.01
2023-03-06T11:19:01.389Z,69.88
2023-03-06T11:24:15.828Z,70.17
2023-03-06T11:29:38.470Z,70.61
2023-03-06T11:34:54.760Z,71.26
2023-03-06T11:40:39.055Z,71.47
2023-03-06T11:46:02.647Z,71.96
2023-03-06T11:51:21.467Z,72.13
2023-03-06T11:56:44.565Z,72.13
2023-03-06T12:02:21.728Z,72.21
2023-03-06T12:08:19.632Z,71.58
2023-03-06T12:13:46.640Z,71.65
2023-03-06T12:18:54.460Z,71.29
2023-03-06T12:24:11.727Z,71.25
2023-03-06T12:29:23.544Z,70.94
2023-03-06T12:35:03.564Z,70.92
2023-03-06T12:40:29.766Z,70.95
2023-03-06T12:45:39.201Z,70.64
2023-03-06T12:50:45.278Z,70.03
2023-03-06T12:55:49.783Z,69.58
2023-03-06T13:01:07.829Z,69.07
2023-03-06T13:06:30.900Z,69.12
2023-03-06T13:11:51.034Z,69.16
2023-03-06T13:16:54.353Z,68.72
2023-03-06T13:21:57.423Z,68.43
2023-03-06T13:27:06.349Z,67.98
2023-03-06T13:32:15.364Z,68.05
2023-03-06T13:37:23.128Z,67.76
2023-03-06T13:42:33.166Z,67.54
2023-03-06T13:48:03.167Z,67.19
2023-03-06T13:53:24.313Z,67.13
2023-03-06T13:58:57.663Z,66.45
2023-03-06T14:04:16.353Z,65.82
2023-03-06T14:09:28.237Z,66.19
2023-03-06T14:14:40.096Z,66.37
2023-03-06T14:19:42.983Z,66.58
2023-03-06T14:24:54.181Z,66.48
2023-03-06T14:30:13.061Z,66.56
2023-03-06T14:35:27.863Z,66.11
2023-03-06T14:40:43.387Z,65.91
2023-03-06T14:46:09.100Z,65.86
2023-03-06T14:51:23.291Z,65.65
2023-03-06T14:56:26.863Z,65.68
2023-03-06T15:01:36.420Z,65.78
2023-03-06T15:06:42.488Z,65.98
2023-03-06T15:11:51.281Z,66.14
2023-03-06T15:16:54.459Z,66.14
2023-03-06T15:21:57.273Z,66.37
2023-03-06T15:27:03.276Z,66.69
2023-03-06T15:32:33.130Z,66.48
2023-03-06T15:37:35.947Z,66.40
2023-03-06T15:42:38.970Z,66.38
2023-03-06T15:47:42.996Z,66.32
2023-03-06T15:52:47.119Z,66.37
2023-03-06T15:57:56.838Z,66.56
2023-03-06T16:03:00.547Z,66.72
2023-03-06T16:08:04.780Z,66.93
2023-03-06T16:13:15.932Z,67.13
2023-03-06T16:18:19.158Z,67.22
2023-03-06T16:23:21.964Z,67.30
2023-03-06T16:28:26.623Z,67.70
2023-03-06T16:33:29.441Z,67.98
2023-03-06T16:38:32.232Z,68.43
2023-03-06T16:43:35.092Z,68.54
2023-03-06T16:48:37.838Z,68.86
2023-03-06T16:53:42.263Z,69.01
2023-03-06T16:58:45.418Z,68.84
2023-03-06T17:03:48.309Z,69.39
2023-03-06T17:08:51.529Z,69.87
2023-03-06T17:13:55.476Z,69.99
2023-03-06T17:19:00.093Z,70.28
2023-03-06T17:24:03.924Z,70.56
2023-03-06T17:29:07.188Z,70.98
2023-03-06T17:34:10.115Z,71.21
2023-03-06T17:39:13.075Z,71.42
2023-03-06T17:44:16.719Z,71.99
2023-03-06T17:49:22.399Z,72.14
2023-03-06T17:54:30.093Z,71.91
2023-03-06T17:59:36.467Z,71.87
2023-03-06T18:04:39.371Z,71.90
2023-03-06T18:09:43.185Z,71.88
2023-03-06T18:14:46.720Z,72.25
2023-03-06T18:19:49.629Z,72.57
2023-03-06T18:24:52.511Z,72.68
2023-03-06T18:29:55.820Z,72.87
2023-03-06T18:34:58.653Z,73.10
2023-03-06T18:40:01.544Z,73.19
2023-03-06T18:45:04.667Z,73.41
2023-03-06T18:50:07.954Z,73.60
2023-03-06T18:55:10.941Z,73.75
2023-03-06T19:00:14.127Z,73.76
2023-03-06T19:05:17.487Z,73.40
2023-03-06T19:10:20.551Z,73.40
2023-03-06T19:15:23.396Z,73.01
2023-03-06T19:20:26.770Z,73.38
2023-03-06T19:25:29.570Z,73.58
2023-03-06T19:30:32.447Z,73.78
2023-03-06T19:35:35.505Z,73.90
2023-03-06T19:40:38.381Z,73.99
2023-03-06T19:45:44.701Z,74.03
2023-03-06T19:50:47.579Z,74.11
2023-03-06T19:55:50.491Z,74.25
2023-03-06T20:00:53.295Z,74.39
2023-03-06T20:05:56.130Z,74.50
2023-03-06T20:10:58.908Z,74.19
2023-03-06T20:16:04.840Z,73.93
2023-03-06T20:21:07.977Z,74.21
2023-03-06T20:26:13.061Z,74.44
2023-03-06T20:31:17.997Z,74.43
2023-03-06T20:36:23.518Z,74.46
2023-03-06T20:41:28.075Z,74.51
2023-03-06T20:46:31.377Z,74.70
2023-03-06T20:51:39.203Z,74.98
2023-03-06T20:56:43.283Z,74.88
2023-03-06T21:01:48.071Z,74.72
2023-03-06T21:06:53.321Z,74.63
2023-03-06T21:11:56.098Z,74.69
2023-03-06T21:16:59.410Z,74.73
2023-03-06T21:22:02.219Z,74.75
2023-03-06T21:27:05.047Z,74.62
2023-03-06T21:32:07.937Z,74.66
2023-03-06T21:37:10.803Z,74.52
2023-03-06T21:42:13.702Z,74.90
2023-03-06T21:47:16.534Z,74.93
2023-03-06T21:52:19.310Z,74.73
2023-03-06T21:57:22.121Z,74.49
2023-03-06T22:02:25.029Z,74.44
2023-03-06T22:07:29.050Z,74.23
2023-03-06T22:12:34.696Z,74.62
2023-03-06T22:17:37.551Z,74.71
2023-03-06T22:22:40.331Z,74.84
2023-03-06T22:27:43.138Z,74.70
2023-03-06T22:32:45.958Z,74.63
2023-03-06T22:37:48.819Z,74.70
2023-03-06T22:42:51.730Z,74.95
2023-03-06T22:48:02.317Z,75.01
2023-03-06T22:53:12.112Z,74.69
2023-03-06T22:58:15.280Z,74.51
2023-03-06T23:03:18.078Z,74.42
2023-03-06T23:08:20.886Z,74.42
2023-03-06T23:13:23.742Z,74.29
2023-03-06T23:18:28.623Z,74.50
2023-03-06T23:23:31.430Z,74.84
2023-03-06T23:28:35.154Z,74.83
2023-03-06T23:33:41.995Z,74.51
2023-03-06T23:38:45.517Z,74.14
2023-03-06T23:43:48.828Z,73.97
2023-03-06T23:48:52.217Z,74.10
2023-03-06T23:53:58.337Z,74.20
2023-03-06T23:59:01.317Z,74.30
